createdAt,value
2022-12-14T00:01:27.786Z,-1.60
2022-12-14T00:03:56.106Z,-1.70
2022-12-14T00:06:24.533Z,-1.70
2022-12-14T00:08:53.109Z,-1.70
2022-12-14T00:11:22.332Z,-1.60
2022-12-14T00:13:52.270Z,-1.60
2022-12-14T00:16:20.192Z,-1.60
2022-12-14T00:18:52.318Z,-1.70
2022-12-14T00:21:20.271Z,-1.70
2022-12-14T00:23:50.024Z,-1.70
2022-12-14T00:26:18.559Z,-1.70
2022-12-14T00:28:46.775Z,-1.70
2022-12-14T00:31:14.635Z,-1.80
2022-12-14T00:33:42.680Z,-1.80
2022-12-14T00:36:12.506Z,-1.90
2022-12-14T00:38:40.415Z,-1.70
2022-12-14T00:41:10.347Z,-1.70
2022-12-14T00:43:38.239Z,-1.70
2022-12-14T00:46:06.465Z,-1.60
2022-12-14T00:48:34.233Z,-1.50
2022-12-14T00:51:01.967Z,-1.50
2022-12-14T00:53:31.090Z,-1.50
2022-12-14T00:56:05.114Z,-1.50
2022-12-14T00:58:32.755Z,-1.30
2022-12-14T01:01:00.883Z,-1.50
2022-12-14T01:03:28.957Z,-1.50
2022-12-14T01:05:57.039Z,-1.40
2022-12-14T01:08:25.042Z,-1.30
2022-12-14T01:10:54.559Z,-1.30
2022-12-14T01:13:22.218Z,-1.30
2022-12-14T01:15:49.928Z,-1.20
2022-12-14T01:18:18.022Z,-1.20
2022-12-14T01:20:45.688Z,-1.30
2022-12-14T01:23:13.346Z,-1.30
2022-12-14T01:25:41.046Z,-1.40
2022-12-14T01:28:10.082Z,-1.40
2022-12-14T01:30:40.027Z,-1.50
2022-12-14T01:33:07.728Z,-1.50
2022-12-14T01:35:35.419Z,-1.60
2022-12-14T01:38:03.226Z,-1.70
2022-12-14T01:40:31.002Z,-1.60
2022-12-14T01:42:58.674Z,-1.60
2022-12-14T01:45:27.843Z,-1.70
2022-12-14T01:47:56.614Z,-1.60
2022-12-14T01:50:28.151Z,-1.60
2022-12-14T01:52:57.920Z,-1.50
2022-12-14T01:55:27.784Z,-1.60
2022-12-14T01:57:58.440Z,-1.60
2022-12-14T02:00:26.102Z,-1.60
2022-12-14T02:02:57.482Z,-1.70
2022-12-14T02:05:25.883Z,-1.60
2022-12-14T02:07:55.958Z,-1.60
2022-12-14T02:10:26.153Z,-1.60
2022-12-14T02:12:58.226Z,-1.70
2022-12-14T02:15:26.034Z,-1.50
2022-12-14T02:17:55.395Z,-1.50
2022-12-14T02:20:23.904Z,-1.50
2022-12-14T02:23:06.478Z,-1.60
2022-12-14T02:25:42.744Z,-1.60
2022-12-14T02:28:26.951Z,-1.60
2022-12-14T02:30:57.186Z,-1.60
2022-12-14T02:33:38.329Z,-1.70
2022-12-14T02:36:10.890Z,-1.60
2022-12-14T02:38:45.425Z,-1.50
2022-12-14T02:41:16.374Z,-1.50
2022-12-14T02:43:50.157Z,-1.60
2022-12-14T02:46:22.601Z,-1.60
2022-12-14T02:48:52.988Z,-1.60
2022-12-14T02:51:25.178Z,-1.50
2022-12-14T02:53:55.933Z,-1.50
2022-12-14T02:56:26.302Z,-1.50
2022-12-14T02:58:54.173Z,-1.20
2022-12-14T03:01:24.995Z,-1.00
2022-12-14T03:03:52.829Z,-1.20
2022-12-14T03:06:26.145Z,-1.30
2022-12-14T03:08:55.894Z,-1.40
2022-12-14T03:11:26.116Z,-1.50
2022-12-14T03:13:56.872Z,-1.60
2022-12-14T03:16:28.503Z,-1.60
2022-12-14T03:18:58.305Z,-1.50
2022-12-14T03:21:28.730Z,-1.60
2022-12-14T03:23:57.364Z,-1.70
2022-12-14T03:26:27.733Z,-1.50
2022-12-14T03:28:56.770Z,-1.50
2022-12-14T03:31:31.374Z,-1.50
2022-12-14T03:33:59.930Z,-1.70
2022-12-14T03:36:31.194Z,-1.70
2022-12-14T03:39:01.272Z,-1.70
2022-12-14T03:41:32.291Z,-1.80
2022-12-14T03:44:11.631Z,-1.80
2022-12-14T03:46:43.368Z,-1.70
2022-12-14T03:49:14.500Z,-1.60
2022-12-14T03:51:47.347Z,-1.60
2022-12-14T03:54:17.277Z,-1.60
2022-12-14T03:56:52.915Z,-1.70
2022-12-14T03:59:25.735Z,-1.60
2022-12-14T04:01:58.222Z,-1.50
2022-12-14T04:04:28.503Z,-1.40
2022-12-14T04:06:59.640Z,-1.40
2022-12-14T04:09:31.661Z,-1.50
2022-12-14T04:12:19.578Z,-1.50
2022-12-14T04:15:08.238Z,-1.60
2022-12-14T04:17:55.550Z,-1.40
2022-12-14T04:20:25.219Z,-1.40
2022-12-14T04:22:55.311Z,-1.40
2022-12-14T04:25:42.552Z,-1.40
2022-12-14T04:28:33.042Z,-1.40
2022-12-14T04:31:02.470Z,-1.30
2022-12-14T04:33:48.641Z,-1.20
2022-12-14T04:36:18.212Z,-1.20
2022-12-14T04:38:47.096Z,-1.20
2022-12-14T04:41:15.953Z,-1.30
2022-12-14T04:43:44.989Z,-1.40
2022-12-14T04:46:18.100Z,-1.40
2022-12-14T04:48:49.699Z,-1.30
2022-12-14T04:51:21.337Z,-1.20
2022-12-14T04:53:50.671Z,-1.20
2022-12-14T04:56:20.930Z,-1.20
2022-12-14T04:58:48.649Z,-1.20
2022-12-14T05:01:23.047Z,-1.10
2022-12-14T05:03:56.170Z,-1.20
2022-12-14T05:06:25.809Z,-1.00
2022-12-14T05:09:03.117Z,-0.90
2022-12-14T05:14:22.149Z,-0.70
2022-12-14T05:16:50.556Z,-0.70
2022-12-14T05:19:19.621Z,-0.90
2022-12-14T05:21:50.189Z,-0.70
2022-12-14T05:24:18.067Z,-0.50
2022-12-14T05:26:46.136Z,-0.20
2022-12-14T05:29:14.947Z,0.00
2022-12-14T05:31:42.645Z,0.20
2022-12-14T05:34:17.639Z,0.00
2022-12-14T05:36:46.692Z,-0.10
2022-12-14T05:39:14.502Z,0.00
2022-12-14T05:41:42.245Z,-0.10
2022-12-14T05:44:10.184Z,0.10
2022-12-14T05:46:38.104Z,0.00
2022-12-14T05:49:05.981Z,0.00
2022-12-14T05:51:33.651Z,-0.30
2022-12-14T05:54:02.700Z,-0.50
2022-12-14T05:56:30.422Z,-0.80
2022-12-14T05:58:58.139Z,-1.00
2022-12-14T06:01:25.961Z,-1.10
2022-12-14T06:03:54.280Z,-1.20
2022-12-14T06:06:22.160Z,-1.20
2022-12-14T06:08:50.366Z,-1.30
2022-12-14T06:11:20.346Z,-1.30
2022-12-14T06:13:48.047Z,-1.30
2022-12-14T06:16:16.676Z,-1.40
2022-12-14T06:18:44.909Z,-1.40
2022-12-14T06:21:12.801Z,-1.50
2022-12-14T06:23:40.479Z,-1.50
2022-12-14T06:26:08.484Z,-1.50
2022-12-14T06:28:37.986Z,-1.50
2022-12-14T06:31:06.466Z,-1.50
2022-12-14T06:33:34.937Z,-1.50
2022-12-14T06:36:03.094Z,-1.60
2022-12-14T06:38:31.049Z,-1.50
2022-12-14T06:40:58.976Z,-1.50
2022-12-14T06:43:27.026Z,-1.50
2022-12-14T06:45:56.352Z,-1.50
2022-12-14T06:48:24.079Z,-1.50
2022-12-14T06:50:51.769Z,-1.50
2022-12-14T06:53:19.459Z,-1.50
2022-12-14T06:55:49.247Z,-1.50
2022-12-14T06:58:17.133Z,-1.50
2022-12-14T07:00:45.106Z,-1.50
2022-12-14T07:03:14.225Z,-1.50
2022-12-14T07:05:45.770Z,-1.40
2022-12-14T07:08:16.615Z,-1.40
2022-12-14T07:10:44.305Z,-1.50
2022-12-14T07:13:11.992Z,-1.50
2022-12-14T07:15:40.124Z,-1.40
2022-12-14T07:18:07.828Z,-1.50
2022-12-14T07:20:36.881Z,-1.40
2022-12-14T07:23:04.565Z,-1.50
2022-12-14T07:25:32.269Z,-1.50
2022-12-14T07:27:59.963Z,-1.50
2022-12-14T07:30:27.829Z,-1.50
2022-12-14T07:32:55.500Z,-1.40
2022-12-14T07:35:23.187Z,-1.40
2022-12-14T07:37:52.188Z,-1.40
2022-12-14T07:40:21.432Z,-1.40
2022-12-14T07:42:49.160Z,-1.40
2022-12-14T07:45:17.113Z,-1.40
2022-12-14T07:47:44.798Z,-1.40
2022-12-14T07:50:12.466Z,-1.40
2022-12-14T07:52:40.308Z,-1.40
2022-12-14T07:55:10.084Z,-1.40
2022-12-14T07:57:37.804Z,-1.40
2022-12-14T08:00:06.075Z,-1.40
2022-12-14T08:02:33.829Z,-1.40
2022-12-14T08:05:01.876Z,-1.40
2022-12-14T08:07:31.322Z,-1.30
2022-12-14T08:09:59.163Z,-1.40
2022-12-14T08:12:28.459Z,-1.30
2022-12-14T08:14:56.490Z,-1.30
2022-12-14T08:17:24.396Z,-1.30
2022-12-14T08:19:52.254Z,-1.30
2022-12-14T08:22:20.326Z,-1.40
2022-12-14T08:24:49.384Z,-1.50
2022-12-14T08:27:17.463Z,-1.50
2022-12-14T08:29:46.624Z,-1.50
2022-12-14T08:32:14.333Z,-1.50
2022-12-14T08:34:42.036Z,-1.50
2022-12-14T08:37:10.350Z,-1.60
2022-12-14T08:39:38.036Z,-1.60
2022-12-14T08:42:05.739Z,-1.60
2022-12-14T08:44:33.842Z,-1.60
2022-12-14T08:47:02.914Z,-1.60
2022-12-14T08:49:32.404Z,-1.70
2022-12-14T08:52:00.494Z,-1.70
2022-12-14T08:54:28.188Z,-1.70
2022-12-14T08:56:55.861Z,-1.70
2022-12-14T08:59:51.965Z,-1.80
2022-12-14T09:02:12.813Z,-1.80
2022-12-14T09:04:40.627Z,-1.80
2022-12-14T09:07:08.382Z,-1.80
2022-12-14T09:09:36.360Z,-1.80
2022-12-14T09:12:06.819Z,-1.80
2022-12-14T09:14:34.537Z,-1.90
2022-12-14T09:17:02.667Z,-1.80
2022-12-14T09:19:31.818Z,-1.80
2022-12-14T09:21:59.550Z,-1.80
2022-12-14T09:24:28.361Z,-1.70
2022-12-14T09:26:56.056Z,-1.80
2022-12-14T09:29:23.722Z,-1.80
2022-12-14T09:31:51.713Z,-1.70
2022-12-14T09:34:19.427Z,-1.70
2022-12-14T09:36:49.072Z,-1.70
2022-12-14T09:39:16.782Z,-1.70
2022-12-14T09:41:59.243Z,-1.70
2022-12-14T09:44:40.272Z,-1.80
2022-12-14T09:47:11.975Z,-1.70
2022-12-14T09:49:42.105Z,-1.70
2022-12-14T09:52:13.922Z,-1.70
2022-12-14T09:54:43.946Z,-1.70
2022-12-14T09:57:14.923Z,-1.70
2022-12-14T09:59:42.665Z,-1.70
2022-12-14T10:02:30.872Z,-1.70
2022-12-14T10:05:03.789Z,-1.60
2022-12-14T10:07:37.688Z,-1.60
2022-12-14T10:10:06.754Z,-1.60
2022-12-14T10:12:41.911Z,-1.60
2022-12-14T10:15:15.531Z,-1.50
2022-12-14T10:18:00.195Z,-1.50
2022-12-14T10:20:32.591Z,-1.50
2022-12-14T10:23:02.323Z,-1.40
2022-12-14T10:25:30.906Z,-1.40
2022-12-14T10:28:10.920Z,-1.30
2022-12-14T10:30:39.196Z,-1.40
2022-12-14T10:33:13.563Z,-1.40
2022-12-14T10:35:45.269Z,-1.40
2022-12-14T10:38:22.062Z,-1.30
2022-12-14T10:40:52.073Z,-1.30
2022-12-14T10:43:30.240Z,-1.30
2022-12-14T10:46:10.057Z,-1.20
2022-12-14T10:48:46.323Z,-1.30
2022-12-14T10:51:17.283Z,-1.20
2022-12-14T10:53:48.796Z,-1.20
2022-12-14T10:56:20.898Z,-1.20
2022-12-14T10:59:04.106Z,-1.10
2022-12-14T11:01:31.959Z,-1.10
2022-12-14T11:03:59.835Z,-1.00
2022-12-14T11:06:27.621Z,-1.00
2022-12-14T11:08:57.917Z,-0.90
2022-12-14T11:11:26.744Z,-0.90
2022-12-14T11:13:55.789Z,-0.90
2022-12-14T11:16:30.433Z,-0.90
2022-12-14T11:19:02.754Z,-1.00
2022-12-14T11:21:31.791Z,-1.00
2022-12-14T11:24:01.292Z,-1.00
2022-12-14T11:26:31.060Z,-1.00
2022-12-14T11:29:00.456Z,-1.00
2022-12-14T11:31:34.043Z,-1.10
2022-12-14T11:34:02.786Z,-1.00
2022-12-14T11:36:32.409Z,-0.90
2022-12-14T11:39:02.481Z,-0.90
2022-12-14T11:41:33.066Z,-1.00
2022-12-14T11:44:05.367Z,-1.00
2022-12-14T11:46:45.071Z,-1.00
2022-12-14T11:49:21.875Z,-0.90
2022-12-14T11:52:00.167Z,-0.90
2022-12-14T11:54:29.426Z,-0.90
2022-12-14T11:56:59.092Z,-1.00
2022-12-14T11:59:29.707Z,-0.90
2022-12-14T12:01:57.752Z,-0.90
2022-12-14T12:04:26.002Z,-0.90
2022-12-14T12:06:54.511Z,-0.90
2022-12-14T12:09:27.380Z,-0.90
2022-12-14T12:11:56.420Z,-0.80
2022-12-14T12:14:27.816Z,-0.80
2022-12-14T12:16:55.482Z,-0.80
2022-12-14T12:19:27.151Z,-0.80
2022-12-14T12:21:55.866Z,-0.80
2022-12-14T12:24:26.073Z,-0.70
2022-12-14T12:26:55.628Z,-0.60
2022-12-14T12:29:28.621Z,-0.60
2022-12-14T12:31:58.614Z,-0.60
2022-12-14T12:34:29.204Z,-0.50
2022-12-14T12:37:25.132Z,-0.50
2022-12-14T12:39:49.758Z,-0.40
2022-12-14T12:42:21.578Z,-0.40
2022-12-14T12:44:53.708Z,-0.50
2022-12-14T12:47:29.988Z,-0.50
2022-12-14T12:50:00.975Z,-0.50
2022-12-14T12:52:29.957Z,-0.50
2022-12-14T12:55:01.160Z,-0.50
2022-12-14T12:57:31.104Z,-0.60
2022-12-14T13:00:00.920Z,-0.60
2022-12-14T13:02:31.216Z,-0.50
2022-12-14T13:05:10.880Z,-0.40
2022-12-14T13:07:49.464Z,-0.40
2022-12-14T13:10:19.692Z,-0.40
2022-12-14T13:12:48.624Z,-0.40
2022-12-14T13:15:21.094Z,-0.40
2022-12-14T13:17:50.370Z,-0.30
2022-12-14T13:20:23.013Z,-0.30
2022-12-14T13:22:51.572Z,-0.20
2022-12-14T13:25:21.256Z,0.00
2022-12-14T13:27:58.350Z,0.00
2022-12-14T13:30:35.014Z,0.10
2022-12-14T13:33:10.233Z,0.10
2022-12-14T13:35:46.129Z,0.20
2022-12-14T13:38:32.843Z,0.30
2022-12-14T13:41:16.154Z,0.30
2022-12-14T13:43:52.817Z,0.40
2022-12-14T13:46:23.447Z,0.30
2022-12-14T13:48:53.655Z,0.20
2022-12-14T13:51:25.908Z,0.30
2022-12-14T13:53:56.909Z,0.20
2022-12-14T13:56:32.618Z,0.10
2022-12-14T13:59:02.208Z,0.10
2022-12-14T14:01:48.801Z,0.00
2022-12-14T14:04:22.095Z,0.00
2022-12-14T14:06:50.344Z,0.00
2022-12-14T14:09:36.568Z,0.10
2022-12-14T14:12:04.834Z,0.10
2022-12-14T14:14:38.054Z,0.00
2022-12-14T14:17:10.122Z,0.00
2022-12-14T14:19:41.139Z,0.00
2022-12-14T14:22:23.909Z,0.00
2022-12-14T14:25:00.542Z,-0.10
2022-12-14T14:27:30.085Z,-0.10
2022-12-14T14:29:58.716Z,-0.10
2022-12-14T14:32:31.955Z,-0.10
2022-12-14T14:35:02.268Z,-0.20
2022-12-14T14:37:31.897Z,-0.10
2022-12-14T14:40:25.944Z,0.00
2022-12-14T14:43:06.620Z,0.00
2022-12-14T14:45:39.050Z,0.00
2022-12-14T14:48:11.103Z,-0.10
2022-12-14T14:50:42.302Z,-0.20
2022-12-14T14:53:14.559Z,-0.20
2022-12-14T14:55:54.246Z,-0.20
2022-12-14T14:58:26.672Z,-0.30
2022-12-14T15:00:56.327Z,-0.20
2022-12-14T15:03:27.579Z,-0.30
2022-12-14T15:05:56.919Z,-0.30
2022-12-14T15:08:30.630Z,-0.30
2022-12-14T15:10:59.209Z,-0.30
2022-12-14T15:13:29.291Z,-0.30
2022-12-14T15:15:57.472Z,-0.20
2022-12-14T15:18:25.855Z,-0.20
2022-12-14T15:20:56.967Z,-0.20
2022-12-14T15:23:24.935Z,-0.10
2022-12-14T15:25:59.932Z,-0.10
2022-12-14T15:28:28.091Z,0.00
2022-12-14T15:30:57.209Z,0.10
2022-12-14T15:33:25.947Z,0.10
2022-12-14T15:35:53.881Z,0.00
2022-12-14T15:38:25.186Z,0.00
2022-12-14T15:40:55.505Z,-0.10
2022-12-14T15:43:23.898Z,-0.10
2022-12-14T15:45:53.040Z,-0.10
2022-12-14T15:48:23.632Z,-0.10
2022-12-14T15:50:54.194Z,-0.10
2022-12-14T15:53:28.142Z,-0.10
2022-12-14T15:56:01.198Z,-0.20
2022-12-14T15:58:33.240Z,-0.20
2022-12-14T16:01:05.502Z,-0.10
2022-12-14T16:03:36.578Z,-0.10
2022-12-14T16:06:04.602Z,-0.20
2022-12-14T16:08:35.391Z,-0.20
2022-12-14T16:11:04.987Z,-0.20
2022-12-14T16:13:33.903Z,-0.10
2022-12-14T16:16:05.947Z,-0.10
2022-12-14T16:18:33.737Z,-0.10
2022-12-14T16:21:03.766Z,-0.10
2022-12-14T16:23:32.753Z,-0.10
2022-12-14T16:26:03.541Z,-0.10
2022-12-14T16:28:32.266Z,-0.20
2022-12-14T16:31:01.407Z,-0.30
2022-12-14T16:33:30.036Z,-0.40
2022-12-14T16:36:02.886Z,-0.40
2022-12-14T16:38:30.753Z,-0.40
2022-12-14T16:40:59.663Z,-0.50
2022-12-14T16:43:31.224Z,-0.60
2022-12-14T16:46:20.295Z,-0.60
2022-12-14T16:49:08.571Z,-0.60
2022-12-14T16:52:08.979Z,-0.70
2022-12-14T16:54:29.039Z,-0.80
2022-12-14T16:56:58.291Z,-0.80
2022-12-14T16:59:28.891Z,-0.90
2022-12-14T17:01:58.013Z,-1.00
2022-12-14T17:04:32.576Z,-1.20
2022-12-14T17:07:00.722Z,-1.20
2022-12-14T17:09:29.837Z,-1.30
2022-12-14T17:12:00.229Z,-1.30
2022-12-14T17:14:29.632Z,-1.40
2022-12-14T17:17:00.490Z,-1.50
2022-12-14T17:19:31.265Z,-1.50
2022-12-14T17:21:59.118Z,-1.60
2022-12-14T17:24:27.687Z,-1.60
2022-12-14T17:26:55.387Z,-1.60
2022-12-14T17:29:24.730Z,-1.60
2022-12-14T17:31:55.275Z,-1.70
2022-12-14T17:34:22.998Z,-1.70
2022-12-14T17:36:50.714Z,-1.70
2022-12-14T17:39:18.436Z,-1.70
2022-12-14T17:41:46.339Z,-1.80
2022-12-14T17:44:15.161Z,-1.80
2022-12-14T17:46:43.630Z,-1.80
2022-12-14T17:49:14.081Z,-1.80
2022-12-14T17:51:42.692Z,-1.90
2022-12-14T17:54:14.878Z,-1.90
2022-12-14T17:56:42.597Z,-1.90
2022-12-14T17:59:10.282Z,-1.90
2022-12-14T18:01:38.157Z,-2.00
2022-12-14T18:04:06.155Z,-1.90
2022-12-14T18:06:35.202Z,-1.90
2022-12-14T18:09:05.117Z,-1.90
2022-12-14T18:11:32.878Z,-2.00
2022-12-14T18:14:00.576Z,-2.00
2022-12-14T18:16:29.266Z,-2.10
2022-12-14T18:18:58.010Z,-2.10
2022-12-14T18:21:26.438Z,-2.20
2022-12-14T18:23:55.739Z,-2.20
2022-12-14T18:26:23.985Z,-2.10
2022-12-14T18:28:52.400Z,-2.10
2022-12-14T18:31:22.540Z,-2.10
2022-12-14T18:33:50.311Z,-2.10
2022-12-14T18:36:19.792Z,-2.10
2022-12-14T18:38:49.440Z,-2.10
2022-12-14T18:41:19.817Z,-2.10
2022-12-14T18:43:47.869Z,-2.10
2022-12-14T18:46:15.706Z,-2.20
2022-12-14T18:48:44.388Z,-2.20
2022-12-14T18:51:13.544Z,-2.20
2022-12-14T18:53:42.486Z,-2.10
2022-12-14T18:56:11.481Z,-2.10
2022-12-14T18:58:41.965Z,-2.10
2022-12-14T19:01:14.748Z,-2.20
2022-12-14T19:03:43.390Z,-2.20
2022-12-14T19:06:43.035Z,-2.20
2022-12-14T19:09:01.005Z,-2.20
2022-12-14T19:11:30.048Z,-2.20
2022-12-14T19:13:59.084Z,-2.20
2022-12-14T19:16:26.866Z,-2.30
2022-12-14T19:18:54.942Z,-2.30
2022-12-14T19:21:23.600Z,-2.30
2022-12-14T19:23:51.304Z,-2.30
2022-12-14T19:26:19.062Z,-2.40
2022-12-14T19:28:46.750Z,-2.40
2022-12-14T19:31:15.914Z,-2.50
2022-12-14T19:33:43.686Z,-2.50
2022-12-14T19:36:11.659Z,-2.60
2022-12-14T19:38:39.375Z,-2.60
2022-12-14T19:41:08.467Z,-2.70
2022-12-14T19:43:36.405Z,-2.70
2022-12-14T19:46:06.099Z,-2.70
2022-12-14T19:48:35.317Z,-2.70
2022-12-14T19:51:03.915Z,-2.70
2022-12-14T19:53:32.328Z,-2.70
2022-12-14T19:56:00.631Z,-2.70
2022-12-14T19:58:28.382Z,-2.70
2022-12-14T20:00:56.124Z,-2.70
2022-12-14T20:03:24.206Z,-2.70
2022-12-14T20:05:54.858Z,-2.70
2022-12-14T20:08:22.817Z,-2.70
2022-12-14T20:10:52.549Z,-2.70
2022-12-14T20:13:20.258Z,-2.70
2022-12-14T20:15:48.873Z,-2.80
2022-12-14T20:18:16.885Z,-2.90
2022-12-14T20:20:45.182Z,-2.90
2022-12-14T20:23:22.153Z,-2.90
2022-12-14T20:25:49.888Z,-2.90
2022-12-14T20:28:17.568Z,-2.90
2022-12-14T20:30:46.122Z,-2.90
2022-12-14T20:33:14.267Z,-2.90
2022-12-14T20:35:41.981Z,-3.00
2022-12-14T20:38:09.665Z,-3.00
2022-12-14T20:40:39.521Z,-2.90
2022-12-14T20:43:07.370Z,-2.90
2022-12-14T20:45:38.061Z,-2.90
2022-12-14T20:48:06.129Z,-3.00
2022-12-14T20:50:33.918Z,-3.00
2022-12-14T20:53:01.827Z,-3.00
2022-12-14T20:55:29.526Z,-3.00
2022-12-14T20:57:58.532Z,-3.00
2022-12-14T21:00:26.577Z,-3.00
2022-12-14T21:02:54.406Z,-3.00
2022-12-14T21:05:22.392Z,-3.10
2022-12-14T21:07:50.147Z,-3.10
2022-12-14T21:10:17.949Z,-3.00
2022-12-14T21:12:47.127Z,-3.00
2022-12-14T21:15:16.577Z,-3.00
2022-12-14T21:17:44.637Z,-3.00
2022-12-14T21:20:13.142Z,-3.00
2022-12-14T21:22:41.021Z,-2.90
2022-12-14T21:25:09.118Z,-2.90
2022-12-14T21:27:38.873Z,-2.90
2022-12-14T21:30:07.161Z,-2.90
2022-12-14T21:32:37.512Z,-2.90
2022-12-14T21:35:05.693Z,-2.90
2022-12-14T21:37:33.413Z,-2.80
2022-12-14T21:40:03.498Z,-2.80
2022-12-14T21:42:30.185Z,-2.80
2022-12-14T21:44:57.874Z,-2.80
2022-12-14T21:47:26.950Z,-2.20
2022-12-14T21:49:56.433Z,-1.60
2022-12-14T21:52:25.661Z,-1.00
2022-12-14T21:54:53.358Z,-0.50
2022-12-14T21:57:40.400Z,0.00
2022-12-14T22:00:09.015Z,0.20
2022-12-14T22:02:36.857Z,0.40
2022-12-14T22:05:06.415Z,0.50
2022-12-14T22:07:34.676Z,0.60
2022-12-14T22:10:02.720Z,0.70
2022-12-14T22:12:30.488Z,0.80
2022-12-14T22:14:58.222Z,0.90
2022-12-14T22:17:25.963Z,0.90
2022-12-14T22:19:54.960Z,0.80
2022-12-14T22:22:23.986Z,0.60
2022-12-14T22:24:51.930Z,0.10
2022-12-14T22:27:19.862Z,-0.50
2022-12-14T22:29:47.679Z,-0.20
2022-12-14T22:32:15.860Z,-0.10
2022-12-14T22:34:43.980Z,0.20
2022-12-14T22:37:13.829Z,0.40
2022-12-14T22:39:42.856Z,0.50
2022-12-14T22:42:10.776Z,0.50
2022-12-14T22:44:38.873Z,0.70
2022-12-14T22:47:06.683Z,0.70
2022-12-14T22:49:34.386Z,0.80
2022-12-14T22:52:02.053Z,0.80
2022-12-14T22:54:30.439Z,0.90
2022-12-14T22:57:01.354Z,0.90
2022-12-14T22:59:31.327Z,0.90
2022-12-14T23:01:59.686Z,0.90
2022-12-14T23:04:27.883Z,1.00
2022-12-14T23:06:55.750Z,1.10
2022-12-14T23:09:40.965Z,1.10
2022-12-14T23:12:27.343Z,1.20
2022-12-14T23:15:12.426Z,1.30
2022-12-14T23:17:57.641Z,1.40
2022-12-14T23:20:42.763Z,1.40
2022-12-14T23:23:28.250Z,1.40
2022-12-14T23:26:15.193Z,1.50
2022-12-14T23:29:01.454Z,1.30
2022-12-14T23:31:46.532Z,1.40
2022-12-14T23:34:32.137Z,1.40
2022-12-14T23:37:20.389Z,1.50
2022-12-14T23:40:06.436Z,1.40
2022-12-14T23:42:51.910Z,1.30
2022-12-14T23:45:38.247Z,1.30
2022-12-14T23:48:23.857Z,1.20
2022-12-14T23:51:08.894Z,1.10
2022-12-14T23:53:54.071Z,1.20
2022-12-14T23:56:39.490Z,1.30
2022-12-14T23:59:29.959Z,0.80
